createdAt,value
2018-08-03T00:02:03.036Z,6.22
2018-08-03T00:04:31.056Z,5.80
2018-08-03T00:06:59.215Z,5.62
2018-08-03T00:09:27.229Z,5.65
2018-08-03T00:11:55.244Z,5.90
2018-08-03T00:14:23.243Z,6.37
2018-08-03T00:16:51.255Z,5.95
2018-08-03T00:19:19.259Z,6.10
2018-08-03T00:21:47.300Z,5.55
2018-08-03T00:24:15.311Z,6.10
2018-08-03T00:26:43.311Z,5.72
2018-08-03T00:29:11.316Z,5.80
2018-08-03T00:31:39.330Z,5.75
2018-08-03T00:34:07.445Z,6.50
2018-08-03T00:36:35.459Z,5.20
2018-08-03T00:39:04.360Z,6.55
2018-08-03T00:41:32.371Z,7.00
2018-08-03T00:44:00.399Z,6.40
2018-08-03T00:46:28.411Z,5.40
2018-08-03T00:48:56.431Z,5.50
2018-08-03T00:51:24.487Z,5.42
2018-08-03T00:53:52.507Z,5.75
2018-08-03T00:56:20.527Z,5.35
2018-08-03T00:58:48.548Z,5.53
2018-08-03T01:01:16.568Z,5.70
2018-08-03T01:03:44.608Z,5.70
2018-08-03T01:06:12.627Z,5.53
2018-08-03T01:08:40.700Z,5.60
2018-08-03T01:11:08.740Z,5.35
2018-08-03T01:13:36.776Z,6.10
2018-08-03T01:16:04.627Z,6.10
2018-08-03T01:18:32.462Z,5.70
2018-08-03T01:21:00.492Z,5.35
2018-08-03T01:23:28.528Z,6.00
2018-08-03T01:25:56.591Z,5.47
2018-08-03T01:28:24.630Z,5.60
2018-08-03T01:30:52.687Z,5.40
2018-08-03T01:33:20.707Z,5.83
2018-08-03T01:35:48.719Z,5.80
2018-08-03T01:38:16.744Z,5.70
2018-08-03T01:40:44.763Z,5.80
2018-08-03T01:43:12.783Z,6.70
2018-08-03T01:45:40.818Z,7.10
2018-08-03T01:48:08.835Z,6.10
2018-08-03T01:50:36.663Z,7.12
2018-08-03T01:53:04.704Z,6.90
2018-08-03T01:55:32.750Z,7.20
2018-08-03T01:58:00.575Z,6.40
2018-08-03T02:00:28.608Z,6.22
2018-08-03T02:02:56.640Z,7.12
2018-08-03T02:05:24.681Z,7.05
2018-08-03T02:07:52.704Z,6.80
2018-08-03T02:10:20.748Z,6.90
2018-08-03T02:12:48.787Z,8.00
2018-08-03T02:15:16.811Z,7.70
2018-08-03T02:17:44.846Z,7.72
2018-08-03T02:20:12.880Z,7.72
2018-08-03T02:22:40.899Z,7.90
2018-08-03T02:25:08.936Z,8.28
2018-08-03T02:27:36.947Z,7.70
2018-08-03T02:30:05.058Z,7.75
2018-08-03T02:32:33.068Z,7.70
2018-08-03T02:35:01.108Z,7.80
2018-08-03T02:37:29.124Z,7.53
2018-08-03T02:39:56.935Z,7.50
2018-08-03T02:42:24.969Z,7.33
2018-08-03T02:44:52.988Z,7.40
2018-08-03T02:47:21.016Z,7.08
2018-08-03T02:49:49.036Z,8.13
2018-08-03T02:52:17.070Z,6.67
2018-08-03T02:54:45.076Z,6.95
2018-08-03T02:57:13.092Z,7.20
2018-08-03T02:59:41.115Z,6.12
2018-08-03T03:02:09.144Z,6.62
2018-08-03T03:04:37.160Z,6.50
2018-08-03T03:07:05.180Z,7.12
2018-08-03T03:09:33.220Z,7.70
2018-08-03T03:12:01.063Z,7.17
2018-08-03T03:14:29.080Z,7.53
2018-08-03T03:16:57.107Z,8.23
2018-08-03T03:19:25.163Z,7.85
2018-08-03T03:21:53.160Z,7.97
2018-08-03T03:24:21.176Z,7.83
2018-08-03T03:26:49.191Z,7.40
2018-08-03T03:29:17.195Z,7.60
2018-08-03T03:31:45.213Z,8.77
2018-08-03T03:34:13.237Z,8.40
2018-08-03T03:36:41.256Z,8.93
2018-08-03T03:39:11.576Z,8.00
2018-08-03T03:41:39.596Z,8.85
2018-08-03T03:44:07.870Z,8.68
2018-08-03T03:46:36.192Z,8.45
2018-08-03T03:49:04.222Z,9.03
2018-08-03T03:51:32.259Z,8.50
2018-08-03T03:54:00.504Z,8.10
2018-08-03T03:56:28.523Z,7.97
2018-08-03T03:58:56.651Z,8.40
2018-08-03T04:01:24.697Z,7.90
2018-08-03T04:03:52.834Z,7.70
2018-08-03T04:06:20.852Z,7.65
2018-08-03T04:08:48.886Z,7.20
2018-08-03T04:11:16.925Z,7.22
2018-08-03T04:13:44.968Z,7.50
2018-08-03T04:16:13.011Z,7.25
2018-08-03T04:18:41.022Z,7.00
2018-08-03T04:21:09.066Z,7.10
2018-08-03T04:23:37.075Z,7.53
2018-08-03T04:26:05.357Z,7.37
2018-08-03T04:28:33.382Z,7.63
2018-08-03T04:31:01.397Z,7.37
2018-08-03T04:33:29.431Z,7.33
2018-08-03T04:35:57.460Z,7.50
2018-08-03T04:38:25.490Z,7.65
2018-08-03T04:40:53.508Z,7.70
2018-08-03T04:43:21.586Z,8.00
2018-08-03T04:45:49.600Z,8.05
2018-08-03T04:48:17.633Z,7.25
2018-08-03T04:50:45.660Z,7.75
2018-08-03T04:53:13.915Z,6.85
2018-08-03T04:55:41.974Z,7.12
2018-08-03T04:58:09.987Z,7.30
2018-08-03T05:00:38.016Z,7.53
2018-08-03T05:03:06.204Z,6.53
2018-08-03T05:05:34.248Z,6.75
2018-08-03T05:08:02.292Z,6.90
2018-08-03T05:10:30.336Z,6.92
2018-08-03T05:12:58.380Z,7.53
2018-08-03T05:15:26.467Z,13.18
2018-08-03T05:17:54.467Z,14.13
2018-08-03T05:20:22.527Z,17.17
2018-08-03T05:22:50.393Z,12.50
2018-08-03T05:25:18.270Z,7.90
2018-08-03T05:27:46.300Z,9.48
2018-08-03T05:30:14.323Z,7.37
2018-08-03T05:32:42.563Z,6.90
2018-08-03T05:35:10.597Z,6.78
2018-08-03T05:37:38.603Z,8.48
2018-08-03T05:40:07.537Z,21.97
2018-08-03T05:42:35.625Z,11.53
2018-08-03T05:45:03.447Z,11.73
2018-08-03T05:47:31.490Z,9.87
2018-08-03T05:49:59.504Z,7.50
2018-08-03T05:52:27.590Z,8.03
2018-08-03T05:54:55.812Z,7.50
2018-08-03T05:57:23.832Z,7.80
2018-08-03T05:59:51.853Z,7.17
2018-08-03T06:02:19.679Z,7.30
2018-08-03T06:04:47.718Z,7.40
2018-08-03T06:07:15.764Z,8.20
2018-08-03T06:09:43.615Z,8.05
2018-08-03T06:12:11.699Z,6.35
2018-08-03T06:14:39.527Z,6.67
2018-08-03T06:17:07.557Z,7.30
2018-08-03T06:19:35.582Z,7.35
2018-08-03T06:22:03.600Z,7.30
2018-08-03T06:24:32.315Z,7.70
2018-08-03T06:27:00.590Z,6.87
2018-08-03T06:29:28.777Z,6.80
2018-08-03T06:31:56.785Z,7.05
2018-08-03T06:34:24.820Z,7.10
2018-08-03T06:36:52.968Z,7.50
2018-08-03T06:39:21.008Z,7.42
2018-08-03T06:41:49.080Z,8.18
2018-08-03T06:44:17.123Z,7.03
2018-08-03T06:46:45.040Z,7.80
2018-08-03T06:49:13.090Z,8.38
2018-08-03T06:51:41.104Z,10.35
2018-08-03T06:54:09.145Z,7.97
2018-08-03T06:56:37.176Z,7.75
2018-08-03T06:59:05.349Z,8.65
2018-08-03T07:01:33.181Z,7.28
2018-08-03T07:04:01.216Z,7.20
2018-08-03T07:06:29.227Z,7.47
2018-08-03T07:08:57.245Z,6.60
2018-08-03T07:11:25.455Z,6.90
2018-08-03T07:13:53.471Z,6.70
2018-08-03T07:16:21.499Z,6.55
2018-08-03T07:18:49.520Z,6.40
2018-08-03T07:21:24.176Z,6.40
2018-08-03T07:23:52.240Z,6.30
2018-08-03T07:26:20.244Z,6.35
2018-08-03T07:28:48.511Z,6.30
2018-08-03T07:31:16.807Z,6.10
2018-08-03T07:33:44.838Z,7.45
2018-08-03T07:36:12.842Z,6.72
2018-08-03T07:38:40.855Z,7.85
2018-08-03T07:41:08.953Z,7.30
2018-08-03T07:43:37.054Z,6.40
2018-08-03T07:46:05.011Z,7.25
2018-08-03T07:48:33.049Z,6.30
2018-08-03T07:51:01.352Z,6.72
2018-08-03T07:53:29.624Z,5.80
2018-08-03T07:55:57.796Z,6.03
2018-08-03T07:58:25.807Z,5.90
2018-08-03T08:00:53.838Z,6.83
2018-08-03T08:03:21.864Z,6.60
2018-08-03T08:05:49.913Z,6.50
2018-08-03T08:08:17.932Z,6.85
2018-08-03T08:10:45.959Z,6.60
2018-08-03T08:13:13.998Z,7.45
2018-08-03T08:15:42.086Z,6.57
2018-08-03T08:18:10.036Z,6.00
2018-08-03T08:20:38.060Z,6.80
2018-08-03T08:23:06.359Z,6.50
2018-08-03T08:25:34.383Z,5.97
2018-08-03T08:28:02.425Z,5.90
2018-08-03T08:30:30.468Z,6.25
2018-08-03T08:32:58.484Z,5.95
2018-08-03T08:35:26.499Z,5.75
2018-08-03T08:37:54.533Z,6.00
2018-08-03T08:40:22.549Z,5.87
2018-08-03T08:42:50.576Z,5.90
2018-08-03T08:45:18.427Z,5.50
2018-08-03T08:47:46.440Z,5.85
2018-08-03T08:50:14.484Z,5.47
2018-08-03T08:52:42.484Z,5.80
2018-08-03T08:55:10.507Z,5.40
2018-08-03T08:57:38.533Z,4.70
2018-08-03T09:00:06.550Z,5.33
2018-08-03T09:02:34.375Z,5.37
2018-08-03T09:05:02.408Z,5.60
2018-08-03T09:07:30.490Z,6.75
2018-08-03T09:09:58.458Z,5.60
2018-08-03T09:12:26.484Z,5.28
2018-08-03T09:14:54.502Z,5.10
2018-08-03T09:17:22.515Z,5.22
2018-08-03T09:19:50.978Z,6.47
2018-08-03T09:22:19.009Z,5.60
2018-08-03T09:24:47.148Z,5.20
2018-08-03T09:27:15.103Z,6.53
2018-08-03T09:29:43.120Z,4.60
2018-08-03T09:32:11.154Z,5.00
2018-08-03T09:34:39.203Z,5.20
2018-08-03T09:37:07.240Z,5.17
2018-08-03T09:39:35.278Z,5.03
2018-08-03T09:42:03.300Z,6.00
2018-08-03T09:44:31.316Z,5.22
2018-08-03T09:46:59.158Z,4.90
2018-08-03T09:49:27.195Z,5.10
2018-08-03T09:51:55.216Z,5.85
2018-08-03T09:54:23.055Z,6.53
2018-08-03T09:56:51.060Z,6.78
2018-08-03T09:59:18.880Z,5.00
2018-08-03T10:01:46.960Z,6.67
2018-08-03T10:04:14.991Z,5.30
2018-08-03T10:06:43.028Z,5.20
2018-08-03T10:09:10.839Z,6.28
2018-08-03T10:11:38.868Z,6.30
2018-08-03T10:14:06.692Z,5.70
2018-08-03T10:16:34.704Z,4.58
2018-08-03T10:19:02.522Z,5.87
2018-08-03T10:21:30.575Z,6.35
2018-08-03T10:23:58.595Z,5.35
2018-08-03T10:26:26.633Z,5.47
2018-08-03T10:28:54.656Z,5.30
2018-08-03T10:31:22.740Z,4.65
2018-08-03T10:33:50.769Z,5.40
2018-08-03T10:36:18.780Z,5.00
2018-08-03T10:38:46.804Z,5.00
2018-08-03T10:41:14.850Z,4.95
2018-08-03T10:43:42.888Z,5.50
2018-08-03T10:46:11.217Z,4.90
2018-08-03T10:48:39.230Z,5.70
2018-08-03T10:51:07.764Z,5.77
2018-08-03T10:53:35.771Z,4.70
2018-08-03T10:56:03.601Z,4.57
2018-08-03T10:58:31.620Z,5.05
2018-08-03T11:00:59.659Z,5.50
2018-08-03T11:03:27.672Z,4.62
2018-08-03T11:05:55.692Z,4.70
2018-08-03T11:08:23.715Z,4.62
2018-08-03T11:10:51.743Z,4.67
2018-08-03T11:13:19.583Z,4.60
2018-08-03T11:15:47.600Z,5.30
2018-08-03T11:18:15.627Z,5.20
2018-08-03T11:20:43.636Z,4.90
2018-08-03T11:23:11.667Z,4.77
2018-08-03T11:25:39.691Z,4.87
2018-08-03T11:28:07.715Z,5.00
2018-08-03T11:30:35.720Z,4.65
2018-08-03T11:33:03.744Z,4.83
2018-08-03T11:35:31.756Z,5.30
2018-08-03T11:37:59.812Z,5.00
2018-08-03T11:40:27.638Z,5.42
2018-08-03T11:42:55.673Z,5.20
2018-08-03T11:45:23.712Z,4.60
2018-08-03T11:47:51.735Z,4.90
2018-08-03T11:50:19.763Z,4.83
2018-08-03T11:52:47.619Z,5.10
2018-08-03T11:55:15.456Z,4.90
2018-08-03T11:57:43.467Z,5.00
2018-08-03T12:00:11.512Z,5.10
2018-08-03T12:02:39.588Z,4.60
2018-08-03T12:05:07.435Z,5.08
2018-08-03T12:07:35.461Z,4.90
2018-08-03T12:10:03.480Z,5.20
2018-08-03T12:12:31.592Z,5.30
2018-08-03T12:14:59.554Z,5.40
2018-08-03T12:17:27.376Z,5.60
2018-08-03T12:19:55.404Z,5.20
2018-08-03T12:22:23.471Z,4.92
2018-08-03T12:24:51.811Z,4.97
2018-08-03T12:27:19.823Z,4.62
2018-08-03T12:29:47.831Z,5.10
2018-08-03T12:32:15.868Z,4.92
2018-08-03T12:34:43.921Z,4.72
2018-08-03T12:37:11.978Z,4.58
2018-08-03T12:39:39.956Z,4.70
2018-08-03T12:42:07.983Z,4.90
2018-08-03T12:44:36.022Z,5.25
2018-08-03T12:47:04.015Z,4.83
2018-08-03T12:49:32.035Z,5.50
2018-08-03T12:52:00.062Z,4.70
2018-08-03T12:54:28.084Z,4.50
2018-08-03T12:56:56.118Z,4.70
2018-08-03T12:59:24.128Z,4.70
2018-08-03T13:01:52.173Z,4.62
2018-08-03T13:04:20.252Z,4.53
2018-08-03T13:06:49.300Z,4.80
2018-08-03T13:09:17.329Z,4.50
2018-08-03T13:11:45.360Z,4.50
2018-08-03T13:14:13.376Z,4.70
2018-08-03T13:16:41.375Z,4.40
2018-08-03T13:19:09.441Z,4.90
2018-08-03T13:21:39.247Z,4.60
2018-08-03T13:24:07.276Z,4.80
2018-08-03T13:26:35.740Z,4.85
2018-08-03T13:29:03.767Z,4.60
2018-08-03T13:31:32.155Z,4.50
2018-08-03T13:34:00.306Z,4.85
2018-08-03T13:36:29.631Z,4.90
2018-08-03T13:38:57.662Z,5.20
2018-08-03T13:41:25.732Z,5.00
2018-08-03T13:43:53.788Z,4.80
2018-08-03T13:46:21.610Z,4.80
2018-08-03T13:48:50.204Z,4.90
2018-08-03T13:51:18.875Z,4.80
2018-08-03T13:53:47.466Z,5.22
2018-08-03T13:56:16.247Z,4.90
2018-08-03T13:58:45.128Z,5.10
2018-08-03T14:01:25.096Z,4.87
2018-08-03T14:03:53.138Z,4.95
2018-08-03T14:06:21.175Z,4.83
2018-08-03T14:08:49.432Z,4.70
2018-08-03T14:11:17.916Z,5.15
2018-08-03T14:13:46.179Z,5.20
2018-08-03T14:16:14.529Z,4.90
2018-08-03T14:18:43.327Z,5.08
2018-08-03T14:21:11.335Z,4.90
2018-08-03T14:23:39.174Z,5.10
2018-08-03T14:26:07.340Z,4.90
2018-08-03T14:28:35.376Z,4.80
2018-08-03T14:31:03.449Z,4.60
2018-08-03T14:33:31.479Z,5.17
2018-08-03T14:35:59.310Z,4.80
2018-08-03T14:38:27.336Z,4.80
2018-08-03T14:40:55.353Z,5.10
2018-08-03T14:43:23.376Z,5.10
2018-08-03T14:45:51.416Z,6.00
2018-08-03T14:48:19.248Z,6.60
2018-08-03T14:50:47.263Z,6.47
2018-08-03T14:53:15.305Z,7.00
2018-08-03T14:55:43.309Z,6.90
2018-08-03T14:58:11.337Z,6.97
2018-08-03T15:00:39.377Z,8.03
2018-08-03T15:03:07.384Z,7.70
2018-08-03T15:05:35.397Z,7.50
2018-08-03T15:08:03.472Z,7.60
2018-08-03T15:10:32.191Z,8.05
2018-08-03T15:13:00.272Z,8.10
2018-08-03T15:15:28.444Z,7.30
2018-08-03T15:17:56.472Z,7.65
2018-08-03T15:20:24.508Z,7.67
2018-08-03T15:22:52.526Z,7.50
2018-08-03T15:25:20.540Z,8.00
2018-08-03T15:27:48.552Z,7.92
2018-08-03T15:30:16.571Z,7.70
2018-08-03T15:32:44.609Z,7.87
2018-08-03T15:35:12.670Z,7.27
2018-08-03T15:37:40.453Z,7.30
2018-08-03T15:40:08.632Z,7.50
2018-08-03T15:42:36.707Z,6.90
2018-08-03T15:45:06.356Z,7.25
2018-08-03T15:47:34.171Z,6.97
2018-08-03T15:50:02.292Z,7.30
2018-08-03T15:52:30.312Z,6.80
2018-08-03T15:54:58.354Z,7.10
2018-08-03T15:57:26.351Z,6.93
2018-08-03T15:59:54.408Z,7.03
2018-08-03T16:02:22.416Z,6.55
2018-08-03T16:04:50.464Z,7.30
2018-08-03T16:07:18.496Z,6.92
2018-08-03T16:09:46.528Z,7.57
2018-08-03T16:12:14.587Z,7.20
2018-08-03T16:14:42.616Z,6.70
2018-08-03T16:17:10.640Z,7.03
2018-08-03T16:19:38.672Z,7.55
2018-08-03T16:22:06.711Z,7.10
2018-08-03T16:24:34.725Z,6.97
2018-08-03T16:27:02.748Z,6.37
2018-08-03T16:29:30.772Z,6.40
2018-08-03T16:31:58.807Z,6.70
2018-08-03T16:34:26.829Z,6.20
2018-08-03T16:36:54.846Z,6.43
2018-08-03T16:39:22.876Z,6.70
2018-08-03T16:41:50.893Z,6.75
2018-08-03T16:44:18.908Z,6.40
2018-08-03T16:46:46.940Z,6.60
2018-08-03T16:49:14.967Z,6.20
2018-08-03T16:51:42.800Z,6.50
2018-08-03T16:54:10.807Z,6.03
2018-08-03T16:56:38.686Z,5.80
2018-08-03T16:59:06.702Z,5.60
2018-08-03T17:01:34.847Z,5.93
2018-08-03T17:04:02.856Z,5.25
2018-08-03T17:06:30.888Z,5.60
2018-08-03T17:08:58.908Z,5.70
2018-08-03T17:11:26.940Z,5.55
2018-08-03T17:13:54.957Z,5.00
2018-08-03T17:16:22.883Z,4.90
2018-08-03T17:18:50.912Z,5.20
2018-08-03T17:21:18.931Z,5.08
2018-08-03T17:23:46.948Z,5.03
2018-08-03T17:26:14.988Z,5.00
2018-08-03T17:28:43.012Z,5.00
2018-08-03T17:31:11.025Z,4.90
2018-08-03T17:33:39.031Z,5.20
2018-08-03T17:36:07.075Z,5.20
2018-08-03T17:38:35.090Z,5.20
2018-08-03T17:41:03.103Z,5.47
2018-08-03T17:43:31.116Z,5.10
2018-08-03T17:45:59.155Z,5.30
2018-08-03T17:48:26.996Z,5.10
2018-08-03T17:50:55.029Z,4.70
2018-08-03T17:53:23.056Z,5.10
2018-08-03T17:55:51.110Z,4.87
2018-08-03T17:58:19.116Z,4.33
2018-08-03T18:00:47.183Z,4.45
2018-08-03T18:03:15.195Z,4.40
2018-08-03T18:05:43.230Z,4.50
2018-08-03T18:08:11.264Z,4.65
2018-08-03T18:10:39.312Z,4.70
2018-08-03T18:13:07.352Z,4.10
2018-08-03T18:15:35.380Z,4.70
2018-08-03T18:18:03.408Z,4.45
2018-08-03T18:20:31.455Z,4.10
2018-08-03T18:22:59.676Z,4.20
2018-08-03T18:25:27.703Z,4.37
2018-08-03T18:27:55.714Z,4.08
2018-08-03T18:30:23.741Z,4.10
2018-08-03T18:32:51.743Z,4.10
2018-08-03T18:35:19.787Z,4.67
2018-08-03T18:37:47.824Z,4.90
2018-08-03T18:40:15.898Z,4.20
2018-08-03T18:42:43.912Z,4.33
2018-08-03T18:45:11.942Z,4.72
2018-08-03T18:47:39.963Z,4.42
2018-08-03T18:50:08.019Z,4.53
2018-08-03T18:52:36.034Z,4.72
2018-08-03T18:55:04.727Z,4.55
2018-08-03T18:57:32.806Z,4.40
2018-08-03T19:00:00.857Z,4.60
2018-08-03T19:02:28.961Z,5.30
2018-08-03T19:04:56.781Z,5.30
2018-08-03T19:07:24.808Z,5.00
2018-08-03T19:09:52.859Z,4.50
2018-08-03T19:12:20.855Z,4.37
2018-08-03T19:14:48.877Z,4.60
2018-08-03T19:17:16.913Z,3.80
2018-08-03T19:19:44.920Z,4.10
2018-08-03T19:22:12.964Z,4.08
2018-08-03T19:24:40.994Z,3.40
2018-08-03T19:27:09.040Z,3.40
2018-08-03T19:29:37.072Z,3.12
2018-08-03T19:32:05.323Z,3.10
2018-08-03T19:34:33.111Z,3.30
2018-08-03T19:37:01.136Z,3.10
2018-08-03T19:39:29.180Z,3.10
2018-08-03T19:41:57.217Z,3.20
2018-08-03T19:44:25.280Z,2.75
2018-08-03T19:46:53.347Z,2.90
2018-08-03T19:49:21.368Z,2.90
2018-08-03T19:51:49.416Z,2.80
2018-08-03T19:54:17.452Z,2.70
2018-08-03T19:56:45.663Z,3.00
2018-08-03T19:59:13.739Z,2.50
2018-08-03T20:01:41.716Z,2.80
2018-08-03T20:04:09.740Z,3.00
2018-08-03T20:06:38.204Z,3.00
2018-08-03T20:09:09.188Z,3.10
2018-08-03T20:11:37.231Z,3.17
2018-08-03T20:14:05.277Z,3.10
2018-08-03T20:16:33.296Z,2.80
2018-08-03T20:19:01.337Z,3.33
2018-08-03T20:21:29.368Z,3.20
2018-08-03T20:23:57.377Z,3.10
2018-08-03T20:26:25.449Z,3.10
2018-08-03T20:28:53.488Z,3.15
2018-08-03T20:31:21.316Z,3.00
2018-08-03T20:33:49.371Z,3.00
2018-08-03T20:36:17.561Z,3.00
2018-08-03T20:38:45.736Z,3.12
2018-08-03T20:41:13.768Z,3.10
2018-08-03T20:43:41.873Z,3.20
2018-08-03T20:46:09.899Z,2.85
2018-08-03T20:48:37.932Z,3.40
2018-08-03T20:51:06.416Z,3.12
2018-08-03T20:53:34.428Z,3.10
2018-08-03T20:56:02.440Z,3.20
2018-08-03T20:58:30.526Z,2.90
2018-08-03T21:00:58.508Z,3.20
2018-08-03T21:03:26.544Z,2.70
2018-08-03T21:05:54.575Z,2.80
2018-08-03T21:08:22.600Z,2.60
2018-08-03T21:10:50.608Z,2.90
2018-08-03T21:13:18.636Z,2.87
2018-08-03T21:15:46.800Z,2.90
2018-08-03T21:18:14.799Z,3.10
2018-08-03T21:20:42.803Z,3.10
2018-08-03T21:23:10.832Z,2.90
2018-08-03T21:25:38.848Z,2.77
2018-08-03T21:28:06.864Z,2.87
2018-08-03T21:30:34.926Z,3.17
2018-08-03T21:33:02.960Z,2.70
2018-08-03T21:35:30.987Z,2.62
2018-08-03T21:37:58.815Z,2.70
2018-08-03T21:40:26.843Z,2.65
2018-08-03T21:42:54.879Z,2.80
2018-08-03T21:45:22.904Z,2.58
2018-08-03T21:47:50.969Z,2.85
2018-08-03T21:50:18.991Z,2.30
2018-08-03T21:52:47.067Z,2.60
2018-08-03T21:55:15.044Z,2.50
2018-08-03T21:57:42.859Z,2.87
2018-08-03T22:00:14.944Z,2.70
2018-08-03T22:02:42.963Z,3.02
2018-08-03T22:05:10.999Z,2.70
2018-08-03T22:07:39.154Z,2.80
2018-08-03T22:10:07.168Z,2.70
2018-08-03T22:12:35.311Z,3.00
2018-08-03T22:15:03.328Z,2.80
2018-08-03T22:17:31.355Z,2.77
2018-08-03T22:19:59.355Z,2.90
2018-08-03T22:22:27.368Z,2.72
2018-08-03T22:24:55.772Z,2.70
2018-08-03T22:27:23.823Z,3.10
2018-08-03T22:29:51.859Z,2.55
2018-08-03T22:32:19.897Z,2.83
2018-08-03T22:34:48.032Z,2.80
2018-08-03T22:37:16.049Z,2.60
2018-08-03T22:39:44.071Z,3.10
2018-08-03T22:42:12.192Z,2.60
2018-08-03T22:44:40.220Z,2.50
2018-08-03T22:47:08.234Z,2.50
2018-08-03T22:49:36.239Z,2.80
2018-08-03T22:52:04.276Z,3.22
2018-08-03T22:54:32.323Z,2.70
2018-08-03T22:57:00.471Z,2.80
2018-08-03T22:59:28.496Z,2.70
2018-08-03T23:01:56.514Z,2.50
2018-08-03T23:04:24.678Z,2.50
2018-08-03T23:06:52.944Z,2.35
2018-08-03T23:09:20.965Z,2.80
2018-08-03T23:11:48.983Z,2.30
2018-08-03T23:14:17.015Z,2.60
2018-08-03T23:16:45.068Z,2.20
2018-08-03T23:19:13.088Z,2.70
2018-08-03T23:21:41.107Z,2.37
2018-08-03T23:24:08.936Z,2.50
2018-08-03T23:26:36.951Z,2.70
2018-08-03T23:29:04.975Z,2.30
2018-08-03T23:31:32.995Z,2.85
2018-08-03T23:34:01.044Z,2.42
2018-08-03T23:36:29.079Z,2.40
2018-08-03T23:38:57.130Z,2.70
2018-08-03T23:41:25.151Z,2.40
2018-08-03T23:43:53.188Z,2.22
2018-08-03T23:46:21.204Z,2.50
2018-08-03T23:48:49.236Z,2.55
2018-08-03T23:51:17.244Z,2.70
2018-08-03T23:53:45.126Z,2.60
2018-08-03T23:56:13.156Z,2.50
2018-08-03T23:58:41.156Z,2.70
